| Date | Time | Temp. (oF) | Dew Point (oF) | Rel. Hum. (%) | Press. (in.) | Wind Dir. | Wind Speed (mph) | Hourly Rainfall (in.) |
|
|---|---|---|---|---|---|---|---|---|---|
| 1 | 01/13 | 00:00 | 58 | 53 | 86 | 30.10 | S | 5 | 0.00 |
| 2 | 01/12 | 23:00 | 57 | 53 | 89 | 30.10 | S | 4 | 0.01 |
| 3 | 01/12 | 22:00 | 60 | 53 | 78 | 30.09 | S | 3 | 0.00 |
| 4 | 01/12 | 21:00 | 62 | 50 | 67 | 30.06 | S | 3 | 0.00 |
| 5 | 01/12 | 20:00 | 62 | 51 | 68 | 30.05 | S | 4 | 0.00 |
| 6 | 01/12 | 19:00 | 63 | 51 | 65 | 30.00 | S | 11 | 0.00 |
| 7 | 01/12 | 18:00 | 63 | 51 | 66 | 29.97 | S | 10 | 0.00 |
| 8 | 01/12 | 17:00 | 63 | 51 | 66 | 29.96 | S | 8 | 0.00 |
| 9 | 01/12 | 16:00 | 63 | 51 | 67 | 29.95 | S | 9 | 0.00 |
| 10 | 01/12 | 15:00 | 62 | 52 | 70 | 29.96 | S | 2 | 0.00 |
| 11 | 01/12 | 14:00 | 60 | 51 | 73 | 29.96 | S | 6 | 0.00 |
| 12 | 01/12 | 13:00 | 59 | 51 | 76 | 29.98 | S | 10 | 0.00 |
| 13 | 01/12 | 12:00 | 57 | 50 | 79 | 30.01 | S | 6 | 0.00 |
| 14 | 01/12 | 11:00 | 56 | 49 | 80 | 30.03 | S | 9 | 0.00 |
| 15 | 01/12 | 10:00 | 56 | 50 | 83 | 30.05 | S | 9 | 0.00 |
| 16 | miss | miss | miss | miss | miss | miss | miss | miss | |
| 17 | 01/09 | 13:33 | 23 | 5 | 46 | 30.67 | WNW | 5 | 0.00 |
| 18 | miss | miss | miss | miss | miss | miss | miss | miss | |
| 19 | 01/09 | 13:31 | 23 | 4 | 45 | 30.67 | WNW | 6 | 0.00 |
| 20 | miss | miss | miss | miss | miss | miss | miss | miss | |
| 21 | 01/09 | 13:29 | 23 | 5 | 46 | 30.67 | WNW | 6 | 0.00 |
| 22 | miss | miss | miss | miss | miss | miss | miss | miss | |
| 23 | 01/09 | 13:27 | 23 | 4 | 45 | 30.67 | WNW | 4 | 0.00 |
| 24 | miss | miss | miss | miss | miss | miss | miss | miss | |
| 25 | 01/09 | 13:25 | 23 | 5 | 46 | 30.67 | WNW | 6 | 0.00 |
| 26 | miss | miss | miss | miss | miss | miss | miss | miss | |
| 27 | 01/09 | 13:25 | 23 | 5 | 46 | 30.67 | WNW | 6 | 0.00 |
| 28 | miss | miss | miss | miss | miss | miss | miss | miss | |
| 29 | 01/09 | 13:25 | 23 | 5 | 46 | 30.67 | WNW | 6 | 0.00 |
| 30 | miss | miss | miss | miss | miss | miss | miss | miss | |
| 31 | 01/09 | 13:25 | 23 | 5 | 46 | 30.67 | WNW | 6 | 0.00 |
| 32 | miss | miss | miss | miss | miss | miss | miss | miss | |
| 33 | 01/09 | 13:25 | 23 | 5 | 46 | 30.67 | WNW | 6 | 0.00 |
| 34 | miss | miss | miss | miss | miss | miss | miss | miss | |
| 35 | 01/09 | 13:25 | 23 | 5 | 46 | 30.67 | WNW | 6 | 0.00 |
| 36 | 01/09 | 13:00 | 24 | 6 | 47 | 30.69 | WNW | 9 | 0.00 |
| 37 | 01/09 | 12:00 | 22 | 4 | 47 | 30.71 | WNW | 7 | 0.00 |
| 38 | 01/09 | 11:00 | 19 | 4 | 53 | 30.77 | WNW | 5 | 0.00 |
| 39 | 01/09 | 10:00 | 17 | 4 | 58 | 30.78 | WNW | 2 | 0.00 |
| 40 | 01/09 | 09:00 | 15 | 4 | 62 | 30.79 | WNW | 3 | 0.00 |
| 41 | 01/09 | 08:00 | 13 | 3 | 65 | 30.75 | WNW | 2 | 0.00 |
| 42 | 01/09 | 07:00 | 13 | 3 | 66 | 30.74 | WNW | 2 | 0.00 |
| 43 | 01/09 | 06:00 | 12 | 3 | 68 | 30.73 | WNW | 0 | 0.00 |
| 44 | 01/09 | 05:00 | 11 | 2 | 68 | 30.73 | WNW | 0 | 0.00 |
| 45 | 01/09 | 04:00 | 11 | 1 | 66 | 30.73 | WNW | 0 | 0.00 |
| 46 | 01/09 | 03:00 | 12 | 2 | 64 | 30.73 | WNW | 3 | 0.00 |
| 47 | 01/09 | 02:00 | 14 | 2 | 60 | 30.73 | WNW | 4 | 0.00 |
| 48 | 01/09 | 01:00 | 15 | 3 | 59 | 30.71 | WNW | 1 | 0.00 |
| 49 | 01/09 | 00:00 | 15 | 2 | 58 | 30.70 | WNW | 5 | 0.00 |
| 50 | 01/08 | 23:00 | 16 | 3 | 56 | 30.71 | WNW | 3 | 0.00 |
| 51 | 01/08 | 22:00 | 16 | 2 | 54 | 30.69 | WNW | 4 | 0.00 |
| 52 | 01/08 | 21:00 | 16 | 1 | 52 | 30.66 | WNW | 12 | 0.00 |
| 53 | 01/08 | 20:00 | 17 | 1 | 51 | 30.63 | WNW | 3 | 0.00 |
| 54 | 01/08 | 19:00 | 17 | 1 | 51 | 30.59 | WNW | 17 | 0.00 |
| 55 | 01/08 | 18:00 | 17 | 1 | 51 | 30.56 | WNW | 5 | 0.00 |
| 56 | 01/08 | 17:00 | 18 | 0 | 45 | 30.51 | WNW | 6 | 0.00 |
| 57 | 01/08 | 16:00 | 20 | 0 | 42 | 30.48 | WNW | 3 | 0.00 |
| 58 | 01/08 | 15:00 | 20 | 0 | 42 | 30.46 | WNW | 4 | 0.00 |
| 59 | 01/08 | 14:00 | 22 | 2 | 42 | 30.44 | WNW | 18 | 0.00 |
| 60 | 01/08 | 13:00 | 21 | 2 | 45 | 30.44 | WNW | 18 | 0.00 |
| 61 | 01/08 | 12:00 | 20 | 3 | 49 | 30.44 | WNW | 16 | 0.00 |
| 62 | 01/08 | 11:00 | 18 | 4 | 54 | 30.45 | WNW | 12 | 0.00 |
| 63 | 01/08 | 10:00 | 16 | 3 | 56 | 30.46 | W | 10 | 0.00 |
| 64 | 01/08 | 09:00 | 13 | 2 | 61 | 30.46 | WNW | 4 | 0.00 |
| 65 | 01/08 | 08:00 | 11 | 1 | 64 | 30.44 | WNW | 4 | 0.00 |
| 66 | 01/08 | 07:00 | 11 | 0 | 63 | 30.43 | WNW | 5 | 0.00 |
| 67 | 01/08 | 06:00 | 11 | 0 | 61 | 30.41 | WNW | 4 | 0.00 |
| 68 | 01/08 | 05:00 | 12 | 0 | 60 | 30.39 | WNW | 7 | 0.00 |
| 69 | 01/08 | 04:00 | 13 | 0 | 57 | 30.38 | WNW | 13 | 0.00 |